Time;durP1;ratioP1;P1;durP2;ratioP2;P2;SDS_P1;SDS_P2;PMS_P1;PMS_P2;Temp;Humidity;BMP_temperature;BMP_pressure;BME280_temperature;BME280_humidity;BME280_pressure;Samples;Min_cycle;Max_cycle;Signal;HPM_P1;HPM_P2
2022/10/10 00:00:37;;;;;;;3.00;2.33;;;10.20;99.90;;;;;;5061568;27;20034;-56
2022/10/10 00:03:03;;;;;;;3.10;2.70;;;10.20;99.90;;;;;;5035325;27;20116;-55
2022/10/10 00:05:29;;;;;;;4.35;2.72;;;10.20;99.90;;;;;;5073938;27;20041;-56
2022/10/10 00:07:54;;;;;;;3.60;2.47;;;10.10;99.90;;;;;;5029422;27;20108;-53
2022/10/10 00:10:20;;;;;;;3.03;2.40;;;10.10;99.90;;;;;;5079299;27;20033;-56
2022/10/10 00:12:46;;;;;;;3.25;2.50;;;10.10;99.90;;;;;;5028769;27;20034;-57
2022/10/10 00:15:13;;;;;;;5.00;2.58;;;10.10;99.90;;;;;;5067697;27;20107;-58
2022/10/10 00:17:41;;;;;;;5.38;2.90;;;10.10;99.90;;;;;;5125354;27;20046;-58
2022/10/10 00:20:07;;;;;;;3.60;2.60;;;10.10;99.90;;;;;;5060013;27;20316;-59
2022/10/10 00:22:32;;;;;;;3.17;2.60;;;10.10;99.90;;;;;;5126999;27;20446;-54
2022/10/10 00:24:58;;;;;;;3.80;2.65;;;10.10;99.90;;;;;;5059957;27;20025;-58
2022/10/10 00:27:23;;;;;;;4.75;2.90;;;10.10;99.90;;;;;;5125628;27;20156;-55
2022/10/10 00:29:49;;;;;;;2.90;2.47;;;10.00;99.90;;;;;;5072877;27;20387;-56
2022/10/10 00:32:14;;;;;;;3.88;2.80;;;10.00;99.90;;;;;;5112789;27;20023;-56
2022/10/10 00:34:40;;;;;;;4.07;2.67;;;10.00;99.90;;;;;;5087102;27;20086;-57
2022/10/10 00:37:05;;;;;;;4.38;2.60;;;10.00;99.90;;;;;;5099659;27;20091;-55
2022/10/10 00:39:31;;;;;;;3.47;2.78;;;10.00;99.90;;;;;;5099706;27;20033;-53
2022/10/10 00:41:56;;;;;;;4.47;2.85;;;9.90;99.90;;;;;;5086620;27;20023;-57
2022/10/10 00:44:22;;;;;;;3.40;2.78;;;9.90;99.90;;;;;;5113376;27;20533;-57
2022/10/10 00:46:47;;;;;;;3.25;2.58;;;9.90;99.90;;;;;;5071551;27;20027;-57
2022/10/10 00:49:23;;;;;;;3.08;2.60;;;9.90;99.90;;;;;;5118055;27;20847;-58
2022/10/10 00:51:52;;;;;;;4.07;2.90;;;9.90;99.90;;;;;;5066689;27;20019;-55
2022/10/10 00:54:20;;;;;;;4.13;2.50;;;9.90;99.90;;;;;;5116936;27;20072;-59
2022/10/10 00:56:53;;;;;;;3.13;2.65;;;9.90;99.90;;;;;;5066988;27;20530;-56
2022/10/10 00:59:19;;;;;;;3.50;2.75;;;9.90;99.90;;;;;;5118634;27;20027;-57
2022/10/10 01:01:46;;;;;;;3.55;2.70;;;9.90;99.90;;;;;;5067301;27;20026;-55
2022/10/10 01:04:36;;;;;;;3.88;2.60;;;9.90;99.90;;;;;;5124886;27;20058;-58
2022/10/10 01:07:09;;;;;;;4.00;2.80;;;9.90;99.90;;;;;;5075932;27;20059;-54
2022/10/10 01:09:37;;;;;;;3.60;2.70;;;9.90;99.90;;;;;;5024134;28;20061;-58
2022/10/10 01:12:29;;;;;;;4.20;2.60;;;9.80;99.90;;;;;;5081658;27;20457;-54
2022/10/10 01:15:18;;;;;;;2.75;2.42;;;9.80;99.90;;;;;;5021291;27;20049;-54
2022/10/10 01:17:51;;;;;;;4.35;2.70;;;9.80;99.90;;;;;;5080315;27;20025;-56
2022/10/10 01:20:47;;;;;;;3.58;2.80;;;9.80;99.90;;;;;;5027273;27;20051;-57
2022/10/10 01:23:31;;;;;;;5.25;2.85;;;9.80;99.90;;;;;;5071651;27;20840;-54
2022/10/10 01:26:20;;;;;;;3.40;2.40;;;9.70;99.90;;;;;;5105716;27;20122;-56
2022/10/10 01:28:57;;;;;;;3.50;2.70;;;9.70;99.90;;;;;;5095777;27;20087;-58
2022/10/10 01:31:24;;;;;;;3.47;2.53;;;9.70;99.90;;;;;;5093549;27;20065;-54
2022/10/10 01:34:18;;;;;;;3.15;2.58;;;9.70;99.90;;;;;;5091724;27;20015;-55
2022/10/10 01:37:11;;;;;;;3.30;3.00;;;9.70;99.90;;;;;;5087414;27;20083;-58
2022/10/10 01:39:59;;;;;;;2.58;2.38;;;9.70;99.90;;;;;;5118695;27;20100;-55
2022/10/10 01:42:39;;;;;;;5.25;2.88;;;9.70;99.90;;;;;;5063320;27;20056;-54
2022/10/10 01:45:05;;;;;;;4.72;2.78;;;9.70;99.90;;;;;;5001056;28;20435;-57
2022/10/10 01:47:31;;;;;;;4.30;2.95;;;9.70;99.90;;;;;;5073172;27;20026;-57
2022/10/10 01:50:01;;;;;;;4.80;2.70;;;9.70;99.90;;;;;;5027678;27;20041;-58
2022/10/10 01:52:36;;;;;;;4.10;2.92;;;9.70;99.90;;;;;;5067161;27;20385;-55
2022/10/10 01:55:04;;;;;;;2.97;2.45;;;9.70;99.90;;;;;;5032281;27;20068;-56
2022/10/10 01:57:39;;;;;;;5.22;3.03;;;9.70;99.90;;;;;;5062135;27;20015;-55
2022/10/10 02:00:10;;;;;;;3.85;3.38;;;9.70;99.90;;;;;;5038435;27;20025;-56
2022/10/10 02:03:04;;;;;;;3.95;2.90;;;9.70;99.90;;;;;;5059064;27;20349;-52
2022/10/10 02:05:45;;;;;;;4.40;2.83;;;9.70;99.90;;;;;;5022947;28;20050;-57
2022/10/10 02:08:22;;;;;;;3.45;2.78;;;9.70;99.90;;;;;;5075610;27;20400;-55
2022/10/10 02:11:02;;;;;;;5.75;2.85;;;9.60;99.90;;;;;;5020105;27;20060;-56
2022/10/10 02:13:53;;;;;;;4.00;3.05;;;9.70;99.90;;;;;;5054016;28;20025;-55
2022/10/10 02:16:33;;;;;;;3.03;2.72;;;9.70;99.90;;;;;;5019506;28;20033;-54
2022/10/10 02:19:00;;;;;;;5.32;2.80;;;9.60;99.90;;;;;;5085614;28;20035;-52
2022/10/10 02:21:27;;;;;;;3.38;2.70;;;9.60;99.90;;;;;;5019681;28;20033;-56
2022/10/10 02:23:55;;;;;;;4.65;3.10;;;9.60;99.90;;;;;;5045981;28;20021;-57
2022/10/10 02:26:23;;;;;;;3.60;3.10;;;9.60;99.90;;;;;;5010024;28;20731;-52
2022/10/10 02:28:59;;;;;;;7.47;2.92;;;9.60;99.90;;;;;;5068573;28;20033;-54
2022/10/10 02:31:37;;;;;;;3.65;2.88;;;9.60;99.90;;;;;;5023131;27;20532;-52
2022/10/10 02:34:23;;;;;;;5.70;3.03;;;9.60;99.90;;;;;;5077430;28;20071;-57
2022/10/10 02:36:53;;;;;;;3.08;2.65;;;9.60;99.90;;;;;;5000683;28;20065;-56
2022/10/10 02:39:22;;;;;;;4.13;2.90;;;9.60;99.90;;;;;;5074861;28;20056;-58
2022/10/10 02:41:49;;;;;;;3.10;2.70;;;9.50;99.90;;;;;;5021962;27;20045;-57
2022/10/10 02:44:16;;;;;;;3.67;2.65;;;9.50;99.90;;;;;;5068697;28;20019;-57
2022/10/10 02:46:41;;;;;;;3.70;3.03;;;9.50;99.90;;;;;;5033770;27;20026;-56
2022/10/10 02:49:07;;;;;;;4.05;2.90;;;9.60;99.90;;;;;;5056656;28;20039;-57
2022/10/10 02:51:33;;;;;;;4.00;3.00;;;9.50;99.90;;;;;;5046673;27;20070;-56
2022/10/10 02:53:59;;;;;;;4.10;2.55;;;9.50;99.90;;;;;;5044160;28;20023;-55
2022/10/10 02:56:25;;;;;;;4.13;2.45;;;9.50;99.90;;;;;;5100629;28;20548;-53
2022/10/10 02:58:50;;;;;;;5.05;2.63;;;9.50;99.90;;;;;;5112147;27;20043;-55
2022/10/10 03:01:16;;;;;;;3.22;2.60;;;9.50;99.90;;;;;;5070057;28;20026;-57
2022/10/10 03:03:41;;;;;;;3.40;2.55;;;9.50;99.90;;;;;;5114198;27;20023;-58
2022/10/10 03:06:07;;;;;;;3.97;2.70;;;9.50;99.90;;;;;;5076962;28;20142;-57
2022/10/10 03:08:32;;;;;;;3.22;2.45;;;9.50;99.90;;;;;;5023012;28;20033;-58
2022/10/10 03:11:01;;;;;;;3.20;2.50;;;9.50;99.90;;;;;;5082939;28;20064;-57
2022/10/10 03:13:27;;;;;;;3.10;2.80;;;9.50;99.90;;;;;;5022941;28;20024;-54
2022/10/10 03:15:52;;;;;;;4.38;2.92;;;9.50;99.90;;;;;;5085698;28;20023;-55
2022/10/10 03:18:18;;;;;;;3.10;2.80;;;9.50;99.90;;;;;;5022277;28;20052;-57
2022/10/10 03:20:45;;;;;;;5.82;2.83;;;9.50;99.90;;;;;;5084550;27;20102;-55
2022/10/10 03:23:12;;;;;;;3.40;2.63;;;9.50;99.90;;;;;;5024099;27;20032;-58
2022/10/10 03:25:42;;;;;;;3.28;2.60;;;9.50;99.90;;;;;;5073253;27;20049;-58
2022/10/10 03:28:08;;;;;;;5.03;2.90;;;9.40;99.90;;;;;;5034170;27;20140;-53
2022/10/10 03:30:34;;;;;;;3.88;2.75;;;9.40;99.90;;;;;;5063090;27;20024;-58
2022/10/10 03:32:59;;;;;;;3.88;2.80;;;9.40;99.90;;;;;;5047814;27;20086;-58
2022/10/10 03:35:26;;;;;;;4.07;3.10;;;9.40;99.90;;;;;;5047833;27;20023;-55
2022/10/10 03:37:52;;;;;;;3.92;2.80;;;9.40;99.90;;;;;;5060531;27;20494;-56
2022/10/10 03:40:17;;;;;;;3.13;2.83;;;9.40;99.90;;;;;;5035338;27;20022;-55
2022/10/10 03:42:43;;;;;;;4.15;3.08;;;9.40;99.90;;;;;;5127738;27;20678;-52
2022/10/10 03:45:09;;;;;;;6.75;2.70;;;9.40;99.90;;;;;;5119278;27;20543;-57
2022/10/10 03:47:34;;;;;;;3.17;2.78;;;9.40;99.90;;;;;;5068284;27;20033;-56
2022/10/10 03:49:59;;;;;;;3.88;2.90;;;9.40;99.90;;;;;;5121603;27;20042;-56
2022/10/10 03:52:25;;;;;;;3.67;2.80;;;9.40;99.90;;;;;;5066558;27;20011;-56
2022/10/10 03:54:51;;;;;;;3.30;2.70;;;9.40;99.90;;;;;;5126689;27;20695;-56
2022/10/10 03:57:16;;;;;;;2.92;2.60;;;9.30;99.90;;;;;;5060404;27;20026;-58
2022/10/10 03:59:42;;;;;;;3.25;2.28;;;9.30;99.90;;;;;;5126076;27;20138;-55
2022/10/10 04:02:07;;;;;;;3.03;2.70;;;9.30;99.90;;;;;;5063291;27;20072;-57
2022/10/10 04:04:33;;;;;;;6.80;2.70;;;9.30;99.90;;;;;;5124110;27;20127;-56
2022/10/10 04:06:58;;;;;;;3.63;2.78;;;9.30;99.90;;;;;;5078240;27;20108;-54
2022/10/10 04:09:24;;;;;;;2.85;2.50;;;9.30;99.90;;;;;;5109134;27;20043;-57
2022/10/10 04:11:49;;;;;;;3.83;3.10;;;9.20;99.90;;;;;;5090993;27;20018;-57
2022/10/10 04:14:15;;;;;;;3.95;2.92;;;9.20;99.90;;;;;;5041494;27;20030;-57
2022/10/10 04:16:40;;;;;;;5.55;2.95;;;9.20;99.90;;;;;;5042938;27;20038;-57
2022/10/10 04:19:06;;;;;;;4.03;2.80;;;9.20;99.90;;;;;;5066057;27;20029;-57
2022/10/10 04:21:31;;;;;;;3.83;3.10;;;9.10;99.90;;;;;;5029544;27;20029;-56
2022/10/10 04:23:57;;;;;;;3.88;2.90;;;9.10;99.90;;;;;;5079041;27;20076;-55
2022/10/10 04:26:22;;;;;;;5.65;2.92;;;9.10;99.90;;;;;;5030045;27;20566;-54
2022/10/10 04:28:48;;;;;;;3.42;3.13;;;9.10;99.90;;;;;;5067695;27;20031;-57
2022/10/10 04:31:14;;;;;;;3.35;2.80;;;9.10;99.90;;;;;;5124043;27;20022;-58
2022/10/10 04:33:39;;;;;;;4.20;2.90;;;9.10;99.90;;;;;;5061154;27;20023;-56
2022/10/10 04:36:05;;;;;;;4.30;3.13;;;9.00;99.90;;;;;;5125907;27;20366;-51
2022/10/10 04:38:30;;;;;;;4.55;2.70;;;9.00;99.90;;;;;;5059111;27;20672;-58
2022/10/10 04:40:56;;;;;;;3.35;2.90;;;9.00;99.90;;;;;;5126293;27;20575;-55
2022/10/10 04:43:21;;;;;;;3.80;3.00;;;9.00;99.90;;;;;;5068885;27;20472;-56
2022/10/10 04:45:47;;;;;;;4.80;3.35;;;8.90;99.90;;;;;;5116589;27;20574;-57
2022/10/10 04:48:13;;;;;;;5.53;2.85;;;8.90;99.90;;;;;;5082477;27;20434;-57
2022/10/10 04:50:39;;;;;;;6.05;3.28;;;8.80;99.90;;;;;;5103366;27;20143;-55
2022/10/10 04:53:05;;;;;;;3.25;2.80;;;8.80;99.90;;;;;;5096196;27;20104;-52
2022/10/10 04:55:30;;;;;;;6.90;3.40;;;8.80;99.90;;;;;;5089298;27;20107;-54
2022/10/10 04:57:56;;;;;;;4.60;3.30;;;8.70;99.90;;;;;;5109252;27;20026;-56
2022/10/10 05:00:21;;;;;;;4.68;3.42;;;8.70;99.90;;;;;;5076123;27;20473;-57
2022/10/10 05:02:47;;;;;;;4.05;3.58;;;8.70;99.90;;;;;;5118204;27;20011;-57
2022/10/10 05:05:12;;;;;;;5.82;3.70;;;8.60;99.90;;;;;;5066372;27;20046;-57
2022/10/10 05:07:38;;;;;;;5.10;3.50;;;8.70;99.90;;;;;;5117852;27;20026;-55
2022/10/10 05:10:05;;;;;;;6.75;3.60;;;8.60;99.90;;;;;;5067122;27;20027;-54
2022/10/10 05:12:31;;;;;;;7.38;3.60;;;8.60;99.90;;;;;;5124675;27;20024;-57
2022/10/10 05:14:56;;;;;;;3.75;3.25;;;8.60;99.90;;;;;;5059822;27;20739;-56
2022/10/10 05:17:22;;;;;;;5.80;3.72;;;8.60;99.90;;;;;;5124881;27;20054;-57
2022/10/10 05:19:48;;;;;;;4.13;3.28;;;8.60;99.90;;;;;;5059064;27;20025;-56
2022/10/10 05:22:13;;;;;;;5.22;3.35;;;8.60;99.90;;;;;;5056861;27;20025;-56
2022/10/10 05:24:39;;;;;;;4.50;3.38;;;8.60;99.90;;;;;;5072413;27;20528;-52
2022/10/10 05:27:05;;;;;;;4.68;3.70;;;8.50;99.90;;;;;;5111846;27;20058;-57
2022/10/10 05:29:30;;;;;;;6.13;3.67;;;8.50;99.90;;;;;;5085533;27;20571;-56
2022/10/10 05:31:56;;;;;;;4.25;3.38;;;8.50;99.90;;;;;;5099308;27;20027;-57
2022/10/10 05:34:21;;;;;;;4.68;3.53;;;8.50;99.90;;;;;;5098399;27;20109;-55
2022/10/10 05:36:47;;;;;;;5.78;3.63;;;8.50;99.90;;;;;;5084386;27;20110;-57
2022/10/10 05:39:12;;;;;;;4.22;3.53;;;8.50;99.90;;;;;;5112430;27;20055;-56
2022/10/10 05:41:38;;;;;;;5.13;3.70;;;8.50;99.90;;;;;;5070849;27;20065;-52
2022/10/10 05:44:03;;;;;;;5.03;3.50;;;8.50;99.90;;;;;;5113125;27;20378;-56
2022/10/10 05:46:29;;;;;;;7.30;3.70;;;8.50;99.90;;;;;;5078974;27;20390;-57
2022/10/10 05:48:54;;;;;;;5.82;3.78;;;8.50;99.90;;;;;;5023228;27;20559;-56
2022/10/10 05:51:20;;;;;;;4.25;3.53;;;8.50;99.90;;;;;;5080576;27;20053;-56
2022/10/10 05:53:46;;;;;;;4.80;3.50;;;8.50;99.90;;;;;;5069369;27;20113;-55
2022/10/10 05:56:14;;;;;;;4.93;3.60;;;8.50;99.90;;;;;;5082331;27;20109;-55
2022/10/10 05:58:40;;;;;;;4.15;3.70;;;8.50;99.90;;;;;;5020474;28;20051;-55
2022/10/10 06:01:06;;;;;;;4.53;3.63;;;8.50;99.90;;;;;;5080915;27;20095;-50
2022/10/10 06:03:33;;;;;;;4.30;3.78;;;8.40;99.90;;;;;;5021174;27;20025;-54
2022/10/10 06:05:59;;;;;;;5.28;3.38;;;8.50;99.90;;;;;;5069101;27;20081;-50
2022/10/10 06:08:25;;;;;;;5.10;3.80;;;8.50;99.90;;;;;;5032939;27;20034;-46
2022/10/10 06:10:51;;;;;;;5.38;4.10;;;8.50;99.90;;;;;;5057032;28;20026;-54
2022/10/10 06:13:18;;;;;;;5.75;3.90;;;8.50;99.90;;;;;;5052802;27;20049;-54
2022/10/10 06:15:44;;;;;;;4.40;3.78;;;8.50;99.90;;;;;;5097593;27;20017;-53
2022/10/10 06:18:10;;;;;;;4.97;3.97;;;8.50;99.90;;;;;;5082654;28;20064;-55
2022/10/10 06:20:37;;;;;;;5.47;3.85;;;8.50;99.90;;;;;;5111879;27;20114;-54
2022/10/10 06:23:04;;;;;;;5.05;4.03;;;8.50;99.90;;;;;;5070679;28;20034;-54
2022/10/10 06:25:32;;;;;;;7.82;4.07;;;8.50;99.90;;;;;;5114432;27;20026;-53
2022/10/10 06:27:58;;;;;;;4.47;3.90;;;8.50;99.90;;;;;;5064637;27;20027;-54
2022/10/10 06:30:24;;;;;;;6.13;4.07;;;8.50;99.90;;;;;;5114400;27;20774;-55
2022/10/10 06:32:49;;;;;;;6.35;4.20;;;8.50;99.90;;;;;;5064799;28;20027;-48
2022/10/10 06:35:15;;;;;;;7.03;4.45;;;8.60;99.90;;;;;;5122956;28;20080;-51
2022/10/10 06:37:40;;;;;;;5.93;3.97;;;8.60;99.90;;;;;;5057645;28;20036;-51
2022/10/10 06:40:06;;;;;;;7.10;4.20;;;8.60;99.90;;;;;;5072886;28;20040;-49
2022/10/10 06:42:32;;;;;;;7.32;4.18;;;8.70;99.90;;;;;;5084775;27;20023;-52
2022/10/10 06:44:58;;;;;;;7.00;3.90;;;8.70;99.90;;;;;;5019424;28;20040;-50
2022/10/10 06:47:24;;;;;;;6.55;5.18;;;8.70;99.90;;;;;;5070577;28;20034;-51
2022/10/10 06:49:49;;;;;;;4.82;4.25;;;8.80;99.90;;;;;;5032959;27;20041;-52
2022/10/10 06:52:15;;;;;;;4.63;4.15;;;8.80;99.90;;;;;;5058294;27;20023;-49
2022/10/10 06:54:40;;;;;;;5.93;3.67;;;8.80;99.90;;;;;;5050356;27;20047;-49
2022/10/10 06:57:06;;;;;;;5.20;4.43;;;8.80;99.90;;;;;;5047133;27;20066;-49
2022/10/10 06:59:32;;;;;;;6.13;4.40;;;8.90;99.90;;;;;;5063948;27;20037;-54
2022/10/10 07:01:58;;;;;;;5.85;4.13;;;8.90;99.90;;;;;;5049521;27;20251;-54
2022/10/10 07:04:23;;;;;;;7.70;4.20;;;8.90;99.90;;;;;;5076097;27;20038;-56
2022/10/10 07:06:49;;;;;;;4.55;4.15;;;9.00;99.90;;;;;;5030485;27;20018;-55
2022/10/10 07:09:16;;;;;;;4.22;3.35;;;9.00;99.90;;;;;;5117345;27;20023;-55
2022/10/10 07:11:44;;;;;;;5.82;3.95;;;9.00;99.90;;;;;;5122957;27;20071;-53
2022/10/10 07:14:12;;;;;;;7.65;4.57;;;9.10;99.90;;;;;;5046020;27;20140;-57
2022/10/10 07:16:38;;;;;;;5.13;3.83;;;9.10;99.90;;;;;;5022579;28;20450;-52
2022/10/10 07:19:04;;;;;;;4.97;3.90;;;9.20;99.90;;;;;;5087876;27;20023;-55
2022/10/10 07:21:29;;;;;;;6.15;4.25;;;9.20;99.90;;;;;;5023149;28;20021;-54
2022/10/10 07:23:58;;;;;;;5.97;4.28;;;9.30;99.90;;;;;;5088759;27;20497;-52
2022/10/10 07:26:27;;;;;;;6.90;3.90;;;9.30;99.90;;;;;;5001945;28;20116;-56
2022/10/10 07:28:52;;;;;;;4.70;3.78;;;9.40;99.90;;;;;;5073889;27;20058;-56
2022/10/10 07:31:18;;;;;;;6.15;3.90;;;9.50;99.90;;;;;;5031224;27;20399;-56
2022/10/10 07:33:46;;;;;;;4.38;3.63;;;9.60;99.90;;;;;;5064274;27;20034;-56
2022/10/10 07:36:12;;;;;;;4.35;3.95;;;9.60;99.90;;;;;;5042829;27;20043;-56
2022/10/10 07:38:38;;;;;;;5.03;4.03;;;9.70;99.90;;;;;;5040211;27;20019;-53
2022/10/10 07:41:05;;;;;;;4.75;3.92;;;9.70;99.90;;;;;;5022534;28;20484;-54
2022/10/10 07:43:30;;;;;;;6.35;4.53;;;9.80;99.90;;;;;;5040155;27;20057;-56
2022/10/10 07:45:56;;;;;;;5.53;4.35;;;9.90;99.90;;;;;;5069697;27;20125;-55
2022/10/10 07:48:22;;;;;;;4.85;4.35;;;9.90;99.90;;;;;;5028890;27;20022;-56
2022/10/10 07:50:47;;;;;;;5.18;4.35;;;10.00;99.90;;;;;;5080803;27;20611;-55
2022/10/10 07:53:13;;;;;;;5.90;4.28;;;10.10;99.90;;;;;;5028981;27;20033;-54
2022/10/10 07:55:39;;;;;;;6.72;4.13;;;10.20;99.90;;;;;;5080352;27;20053;-54
2022/10/10 07:58:05;;;;;;;4.97;4.18;;;10.30;99.90;;;;;;5022226;28;20022;-52
2022/10/10 08:00:32;;;;;;;4.95;4.22;;;10.30;99.90;;;;;;5087591;27;20017;-53
2022/10/10 08:02:57;;;;;;;4.78;4.13;;;10.40;99.90;;;;;;5022072;28;20048;-53
2022/10/10 08:05:23;;;;;;;5.25;4.10;;;10.50;99.90;;;;;;5086805;27;20751;-54
2022/10/10 08:07:49;;;;;;;5.28;4.10;;;10.50;99.90;;;;;;5022620;28;20021;-52
2022/10/10 08:10:14;;;;;;;5.47;4.30;;;10.60;99.90;;;;;;5040062;27;20037;-55
2022/10/10 08:12:40;;;;;;;6.07;4.80;;;10.70;99.90;;;;;;5116451;27;20106;-57
2022/10/10 08:15:06;;;;;;;6.25;4.80;;;10.80;99.90;;;;;;5079245;27;20032;-56
2022/10/10 08:17:31;;;;;;;5.60;4.28;;;10.90;99.90;;;;;;5101946;27;20039;-56
2022/10/10 08:19:57;;;;;;;5.97;4.45;;;11.00;99.90;;;;;;5098586;27;20122;-57
2022/10/10 08:22:23;;;;;;;5.63;4.00;;;11.10;99.90;;;;;;5087390;27;20039;-56
2022/10/10 08:24:48;;;;;;;5.57;4.10;;;11.10;99.90;;;;;;5111549;27;20038;-56
2022/10/10 08:27:16;;;;;;;5.90;4.50;;;11.20;99.90;;;;;;5074395;27;20034;-56
2022/10/10 08:29:42;;;;;;;4.70;4.30;;;11.20;99.90;;;;;;5117437;27;20064;-57
2022/10/10 08:32:07;;;;;;;5.85;4.00;;;11.30;99.90;;;;;;5064842;27;20106;-54
2022/10/10 08:34:33;;;;;;;7.82;4.05;;;11.40;99.90;;;;;;5116740;27;20114;-55
2022/10/10 08:36:58;;;;;;;3.97;3.50;;;11.40;99.90;;;;;;5066417;27;20164;-55
2022/10/10 08:39:27;;;;;;;8.32;4.10;;;11.40;99.90;;;;;;5125781;27;20027;-52
2022/10/10 08:41:56;;;;;;;4.15;3.75;;;11.40;99.90;;;;;;5060277;27;20057;-53
2022/10/10 08:45:00;;;;;;;4.93;4.05;;;11.40;99.90;;;;;;5124515;27;20399;-52
2022/10/10 08:47:50;;;;;;;6.45;4.03;;;11.40;99.90;;;;;;5061146;28;20029;-52
2022/10/10 08:50:29;;;;;;;4.93;4.15;;;11.40;99.90;;;;;;5116261;27;20052;-54
2022/10/10 08:53:00;;;;;;;6.45;3.85;;;11.40;99.90;;;;;;5067510;27;20055;-52
2022/10/10 08:55:35;;;;;;;7.22;4.30;;;11.50;99.90;;;;;;5061433;27;20028;-51
2022/10/10 08:58:25;;;;;;;5.05;4.05;;;11.50;99.90;;;;;;5066707;27;20035;-53
2022/10/10 09:01:12;;;;;;;3.55;3.22;;;11.50;99.90;;;;;;5118858;27;20023;-52
2022/10/10 09:03:50;;;;;;;4.60;4.00;;;11.60;99.90;;;;;;5074999;27;20046;-52
2022/10/10 09:06:29;;;;;;;6.78;3.90;;;11.70;99.90;;;;;;5106724;27;20054;-51
2022/10/10 09:09:22;;;;;;;5.20;3.95;;;11.80;99.90;;;;;;5086991;27;20035;-55
2022/10/10 09:12:27;;;;;;;4.70;4.18;;;11.90;99.90;;;;;;5092104;27;20033;-53
2022/10/10 09:15:12;;;;;;;6.07;3.97;;;12.00;99.90;;;;;;5058453;27;20060;-50
2022/10/10 09:17:45;;;;;;;4.13;3.40;;;12.10;99.90;;;;;;5082523;27;20026;-50
2022/10/10 09:20:14;;;;;;;6.15;4.38;;;12.20;99.90;;;;;;5001181;28;20030;-55
2022/10/10 09:22:50;;;;;;;5.18;3.85;;;12.30;99.90;;;;;;5034158;27;20151;-52
2022/10/10 09:25:19;;;;;;;6.13;4.13;;;12.50;99.90;;;;;;5021364;28;20022;-52
2022/10/10 09:28:00;;;;;;;10.80;4.38;;;12.60;99.90;;;;;;5072478;27;20401;-54
2022/10/10 09:30:29;;;;;;;5.47;4.32;;;12.80;99.90;;;;;;5023560;27;20390;-50
2022/10/10 09:33:16;;;;;;;6.85;4.40;;;13.00;99.90;;;;;;5071083;27;20053;-54
2022/10/10 09:35:42;;;;;;;6.20;4.07;;;13.20;99.90;;;;;;5001455;28;20108;-47
2022/10/10 09:38:34;;;;;;;6.05;4.45;;;13.30;99.90;;;;;;5067674;27;20027;-54
2022/10/10 09:41:12;;;;;;;6.07;4.40;;;13.50;99.90;;;;;;5000922;28;20498;-54
2022/10/10 09:43:38;;;;;;;7.28;4.55;;;13.60;99.90;;;;;;5082871;27;20019;-51
2022/10/10 09:46:05;;;;;;;6.70;4.65;;;13.70;99.90;;;;;;5020634;28;20029;-54
2022/10/10 09:48:38;;;;;;;5.60;4.80;;;13.80;99.90;;;;;;5074023;27;20046;-53
2022/10/10 09:51:08;;;;;;;6.20;4.60;;;13.90;99.90;;;;;;5026344;27;20026;-52
2022/10/10 09:53:33;;;;;;;5.30;4.00;;;14.00;99.90;;;;;;5068759;27;20355;-54
2022/10/10 09:55:59;;;;;;;7.47;4.53;;;14.10;99.90;;;;;;5037106;27;20503;-53
2022/10/10 09:58:44;;;;;;;4.47;3.75;;;14.10;99.90;;;;;;5055894;27;20484;-50
2022/10/10 10:01:27;;;;;;;4.97;4.18;;;14.30;99.90;;;;;;5035801;27;20130;-52
2022/10/10 10:04:19;;;;;;;5.70;4.50;;;14.30;99.90;;;;;;5067970;27;20520;-52
2022/10/10 10:06:48;;;;;;;5.10;4.60;;;14.40;99.90;;;;;;5000892;28;20048;-55
2022/10/10 10:09:17;;;;;;;7.57;4.82;;;14.50;99.90;;;;;;5069562;27;20039;-52
2022/10/10 10:11:44;;;;;;;6.60;4.85;;;14.60;99.90;;;;;;5027719;27;20052;-51
2022/10/10 10:14:34;;;;;;;7.63;4.60;;;14.70;99.90;;;;;;5037094;28;20078;-50
2022/10/10 10:17:09;;;;;;;6.03;4.60;;;14.80;99.90;;;;;;5020766;28;20475;-54
2022/10/10 10:19:38;;;;;;;6.60;5.43;;;14.90;99.90;;;;;;5047241;28;20022;-54
2022/10/10 10:22:04;;;;;;;5.72;4.60;;;15.00;99.90;;;;;;5116251;28;20020;-49
2022/10/10 10:24:35;;;;;;;6.80;4.18;;;15.00;99.90;;;;;;5078688;27;20026;-52
2022/10/10 10:27:28;;;;;;;4.35;3.70;;;15.10;99.90;;;;;;5110169;27;20015;-52
2022/10/10 10:29:57;;;;;;;4.82;4.00;;;15.10;99.90;;;;;;5069784;27;20041;-56
2022/10/10 10:32:34;;;;;;;7.60;5.15;;;15.10;99.90;;;;;;5119015;27;20542;-54
2022/10/10 10:35:18;;;;;;;6.85;3.53;;;15.20;99.90;;;;;;5076725;27;20395;-53
2022/10/10 10:38:46;;;;;;;5.35;4.07;;;15.20;99.90;;;;;;5127507;27;20492;-54
2022/10/10 10:41:37;;;;;;;6.72;4.57;;;15.20;99.90;;;;;;5063516;28;20466;-50
2022/10/10 10:44:26;;;;;;;5.45;4.10;;;15.20;99.90;;;;;;5117423;27;20039;-55
2022/10/10 10:47:41;;;;;;;5.30;3.80;;;15.30;99.90;;;;;;5064057;27;20121;-51
2022/10/10 10:50:25;;;;;;;5.75;3.45;;;15.40;99.90;;;;;;5092828;27;20045;-51
2022/10/10 10:53:12;;;;;;;6.47;3.72;;;15.40;99.90;;;;;;5110421;27;20114;-53
2022/10/10 10:55:59;;;;;;;6.20;4.47;;;15.40;99.90;;;;;;5078901;27;20032;-54
2022/10/10 10:58:49;;;;;;;5.28;4.18;;;15.50;99.90;;;;;;5125441;27;20332;-53
2022/10/10 11:01:24;;;;;;;6.22;4.38;;;15.50;99.90;;;;;;5061544;27;20021;-51
2022/10/10 11:04:02;;;;;;;5.80;4.00;;;15.60;99.90;;;;;;5127478;27;20034;-52
2022/10/10 11:06:54;;;;;;;4.78;3.70;;;15.70;99.90;;;;;;5060529;27;20064;-51
2022/10/10 11:09:47;;;;;;;6.75;4.03;;;15.70;99.90;;;;;;5126930;27;20043;-55
2022/10/10 11:12:37;;;;;;;7.63;4.32;;;15.80;99.90;;;;;;5059521;27;20035;-48
2022/10/10 11:15:15;;;;;;;4.97;3.20;;;15.90;99.90;;;;;;5073626;27;20062;-51
2022/10/10 11:18:24;;;;;;;6.50;3.90;;;15.90;99.90;;;;;;5080842;27;20031;-51
2022/10/10 11:20:59;;;;;;;4.40;3.58;;;15.90;99.90;;;;;;4987669;27;20074;-49
2022/10/10 11:23:33;;;;;;;7.28;4.97;;;16.00;99.90;;;;;;5061230;27;20061;-53
2022/10/10 11:26:43;;;;;;;6.05;3.90;;;16.00;99.90;;;;;;5040321;27;20025;-50
2022/10/10 11:29:23;;;;;;;4.72;3.80;;;16.20;99.90;;;;;;5061662;28;20036;-50
2022/10/10 11:32:10;;;;;;;12.23;4.50;;;16.30;99.90;;;;;;5061979;28;20074;-54
2022/10/10 11:34:51;;;;;;;7.07;4.38;;;16.40;99.90;;;;;;5110050;27;20043;-52
2022/10/10 11:37:22;;;;;;;7.03;3.95;;;16.40;99.90;;;;;;5066924;27;20058;-53
2022/10/10 11:39:56;;;;;;;4.60;3.53;;;16.50;99.90;;;;;;5124202;27;20042;-50
2022/10/10 11:42:40;;;;;;;5.68;4.15;;;16.50;99.90;;;;;;5069838;27;20029;-54
2022/10/10 11:45:14;;;;;;;4.75;3.75;;;16.50;99.90;;;;;;5002726;28;20018;-53
2022/10/10 11:47:58;;;;;;;5.38;3.90;;;16.40;99.90;;;;;;5079056;27;20031;-52
2022/10/10 11:50:28;;;;;;;5.47;3.53;;;16.40;99.90;;;;;;5002620;28;20143;-55
2022/10/10 11:53:12;;;;;;;7.82;4.50;;;16.40;99.90;;;;;;5081389;27;20027;-51
2022/10/10 11:55:50;;;;;;;5.50;3.38;;;16.50;99.90;;;;;;5003061;28;20026;-53
2022/10/10 11:58:38;;;;;;;4.45;3.63;;;16.50;99.90;;;;;;5085050;27;20030;-52
2022/10/10 12:01:25;;;;;;;4.22;3.42;;;16.60;99.90;;;;;;5021930;28;20128;-52
2022/10/10 12:03:51;;;;;;;4.20;3.28;;;16.70;99.90;;;;;;5065674;27;20058;-51
2022/10/10 12:06:37;;;;;;;5.85;3.80;;;16.80;99.90;;;;;;5125776;27;20142;-53
2022/10/10 12:09:10;;;;;;;6.63;3.67;;;16.90;99.90;;;;;;5068930;27;20053;-56
2022/10/10 12:11:39;;;;;;;7.00;3.80;;;17.00;99.90;;;;;;5022056;28;20100;-55
2022/10/10 12:14:12;;;;;;;4.65;3.60;;;17.10;99.90;;;;;;5100704;27;20027;-55
2022/10/10 12:16:38;;;;;;;4.22;3.47;;;17.20;99.90;;;;;;5126912;27;20015;-52
2022/10/10 12:19:07;;;;;;;4.97;3.28;;;17.30;99.90;;;;;;5061402;27;20723;-54
2022/10/10 12:21:54;;;;;;;6.57;3.55;;;17.40;99.90;;;;;;5125657;27;20019;-53
2022/10/10 12:24:20;;;;;;;5.05;3.38;;;17.40;99.90;;;;;;5060651;27;20026;-55
2022/10/10 12:26:55;;;;;;;5.28;3.90;;;17.50;99.90;;;;;;5127305;27;20083;-55
2022/10/10 12:29:46;;;;;;;6.82;3.58;;;17.50;99.90;;;;;;5059647;27;20037;-49
2022/10/10 12:32:14;;;;;;;5.78;3.40;;;17.50;99.90;;;;;;5126601;27;20036;-57
2022/10/10 12:35:02;;;;;;;7.18;3.42;;;17.40;99.90;;;;;;5068322;27;20041;-50
2022/10/10 12:37:33;;;;;;;7.00;3.85;;;17.30;99.90;;;;;;5125922;27;20027;-55
2022/10/10 12:40:18;;;;;;;5.97;3.63;;;17.30;99.90;;;;;;5060363;27;20054;-53
2022/10/10 12:42:47;;;;;;;7.82;3.88;;;17.20;99.90;;;;;;5124875;27;20767;-54
2022/10/10 12:45:27;;;;;;;7.03;4.05;;;17.10;99.90;;;;;;5063560;27;20022;-55
2022/10/10 12:48:04;;;;;;;6.00;3.78;;;17.10;99.90;;;;;;5003627;28;20074;-54
2022/10/10 12:50:38;;;;;;;4.55;3.60;;;17.00;99.90;;;;;;5074842;27;20579;-51
2022/10/10 12:53:12;;;;;;;4.68;2.90;;;16.90;99.90;;;;;;5022833;28;20061;-52
2022/10/10 12:55:53;;;;;;;6.90;4.22;;;16.90;99.90;;;;;;5080019;27;20017;-53
2022/10/10 12:58:23;;;;;;;4.88;3.67;;;16.80;99.90;;;;;;5025097;27;20033;-55
2022/10/10 13:00:49;;;;;;;4.60;3.33;;;16.80;99.90;;;;;;5079921;27;20088;-55
2022/10/10 13:03:32;;;;;;;7.55;3.78;;;16.70;99.90;;;;;;5020817;28;20029;-55
2022/10/10 13:06:06;;;;;;;6.05;3.65;;;16.70;99.90;;;;;;5066066;27;20099;-54
2022/10/10 13:08:36;;;;;;;5.68;3.78;;;16.60;99.90;;;;;;5124565;27;20107;-54
2022/10/10 13:11:14;;;;;;;9.70;4.35;;;16.60;99.90;;;;;;5060282;27;20054;-53
2022/10/10 13:13:52;;;;;;;5.97;3.80;;;16.60;99.90;;;;;;5126022;27;20027;-52
2022/10/10 13:16:21;;;;;;;8.43;3.50;;;16.50;99.90;;;;;;5075312;27;20384;-50